sensor_id;sensor_type;location;lat;lon;timestamp;P1;durP1;ratioP1;P2;durP2;ratioP2
10389;SDS011;5241;47.830;12.972;2024-01-15T00:01:26;6.33;;;3.40;;
10389;SDS011;5241;47.830;12.972;2024-01-15T00:03:51;8.27;;;3.70;;
10389;SDS011;5241;47.830;12.972;2024-01-15T00:06:17;3.90;;;2.47;;
10389;SDS011;5241;47.830;12.972;2024-01-15T00:08:42;4.73;;;3.03;;
10389;SDS011;5241;47.830;12.972;2024-01-15T00:11:08;8.80;;;3.50;;
10389;SDS011;5241;47.830;12.972;2024-01-15T00:13:33;5.63;;;2.83;;
10389;SDS011;5241;47.830;12.972;2024-01-15T00:15:59;8.87;;;3.50;;
10389;SDS011;5241;47.830;12.972;2024-01-15T00:18:24;4.83;;;2.30;;
10389;SDS011;5241;47.830;12.972;2024-01-15T00:20:50;7.33;;;2.90;;
10389;SDS011;5241;47.830;12.972;2024-01-15T00:23:16;6.27;;;2.77;;
10389;SDS011;5241;47.830;12.972;2024-01-15T00:25:41;6.57;;;2.93;;
10389;SDS011;5241;47.830;12.972;2024-01-15T00:28:07;9.80;;;4.10;;
10389;SDS011;5241;47.830;12.972;2024-01-15T00:30:32;8.80;;;3.13;;
10389;SDS011;5241;47.830;12.972;2024-01-15T00:32:58;5.67;;;3.10;;
10389;SDS011;5241;47.830;12.972;2024-01-15T00:35:23;7.10;;;3.00;;
10389;SDS011;5241;47.830;12.972;2024-01-15T00:37:49;7.90;;;3.63;;
10389;SDS011;5241;47.830;12.972;2024-01-15T00:40:14;6.13;;;2.93;;
10389;SDS011;5241;47.830;12.972;2024-01-15T00:42:40;5.63;;;2.97;;
10389;SDS011;5241;47.830;12.972;2024-01-15T00:45:05;6.97;;;3.53;;
10389;SDS011;5241;47.830;12.972;2024-01-15T00:47:32;7.77;;;4.10;;
10389;SDS011;5241;47.830;12.972;2024-01-15T00:49:59;6.53;;;3.10;;
10389;SDS011;5241;47.830;12.972;2024-01-15T00:52:24;7.83;;;3.80;;
10389;SDS011;5241;47.830;12.972;2024-01-15T00:54:50;6.73;;;3.07;;
10389;SDS011;5241;47.830;12.972;2024-01-15T00:57:15;5.47;;;3.10;;
10389;SDS011;5241;47.830;12.972;2024-01-15T00:59:41;6.87;;;3.37;;
10389;SDS011;5241;47.830;12.972;2024-01-15T01:02:07;4.70;;;3.33;;
10389;SDS011;5241;47.830;12.972;2024-01-15T01:04:32;5.37;;;2.77;;
10389;SDS011;5241;47.830;12.972;2024-01-15T01:06:58;5.83;;;3.43;;
10389;SDS011;5241;47.830;12.972;2024-01-15T01:09:23;8.30;;;4.40;;
10389;SDS011;5241;47.830;12.972;2024-01-15T01:11:49;6.67;;;3.67;;
10389;SDS011;5241;47.830;12.972;2024-01-15T01:14:15;5.97;;;3.13;;
10389;SDS011;5241;47.830;12.972;2024-01-15T01:16:40;6.87;;;3.10;;
10389;SDS011;5241;47.830;12.972;2024-01-15T01:19:06;5.73;;;3.30;;
10389;SDS011;5241;47.830;12.972;2024-01-15T01:21:32;7.30;;;3.30;;
10389;SDS011;5241;47.830;12.972;2024-01-15T01:23:58;7.63;;;3.67;;
10389;SDS011;5241;47.830;12.972;2024-01-15T01:26:24;3.17;;;2.40;;
10389;SDS011;5241;47.830;12.972;2024-01-15T01:28:49;4.87;;;2.97;;
10389;SDS011;5241;47.830;12.972;2024-01-15T01:31:15;8.23;;;3.07;;
10389;SDS011;5241;47.830;12.972;2024-01-15T01:33:41;6.10;;;3.63;;
10389;SDS011;5241;47.830;12.972;2024-01-15T01:36:08;4.73;;;2.63;;
10389;SDS011;5241;47.830;12.972;2024-01-15T01:38:34;7.00;;;3.60;;
10389;SDS011;5241;47.830;12.972;2024-01-15T01:41:00;6.10;;;2.93;;
10389;SDS011;5241;47.830;12.972;2024-01-15T01:43:26;5.73;;;3.00;;
10389;SDS011;5241;47.830;12.972;2024-01-15T01:45:52;8.13;;;3.70;;
10389;SDS011;5241;47.830;12.972;2024-01-15T01:48:20;11.10;;;4.07;;
10389;SDS011;5241;47.830;12.972;2024-01-15T01:50:46;6.20;;;3.83;;
10389;SDS011;5241;47.830;12.972;2024-01-15T01:53:12;5.70;;;3.20;;
10389;SDS011;5241;47.830;12.972;2024-01-15T01:55:37;6.80;;;3.10;;
10389;SDS011;5241;47.830;12.972;2024-01-15T01:58:04;8.70;;;3.70;;
10389;SDS011;5241;47.830;12.972;2024-01-15T02:00:30;7.13;;;3.37;;
10389;SDS011;5241;47.830;12.972;2024-01-15T02:02:57;7.07;;;3.40;;
10389;SDS011;5241;47.830;12.972;2024-01-15T02:05:22;7.53;;;3.00;;
10389;SDS011;5241;47.830;12.972;2024-01-15T02:07:48;9.40;;;3.37;;
10389;SDS011;5241;47.830;12.972;2024-01-15T02:10:14;8.23;;;3.43;;
10389;SDS011;5241;47.830;12.972;2024-01-15T02:12:39;6.47;;;3.37;;
10389;SDS011;5241;47.830;12.972;2024-01-15T02:15:05;6.50;;;3.50;;
10389;SDS011;5241;47.830;12.972;2024-01-15T02:17:31;7.77;;;3.53;;
10389;SDS011;5241;47.830;12.972;2024-01-15T02:19:56;8.17;;;3.53;;
10389;SDS011;5241;47.830;12.972;2024-01-15T02:22:22;5.33;;;3.20;;
10389;SDS011;5241;47.830;12.972;2024-01-15T02:24:47;8.37;;;4.20;;
10389;SDS011;5241;47.830;12.972;2024-01-15T02:27:13;8.30;;;3.73;;
10389;SDS011;5241;47.830;12.972;2024-01-15T02:29:39;5.83;;;3.43;;
10389;SDS011;5241;47.830;12.972;2024-01-15T02:32:05;6.33;;;3.53;;
10389;SDS011;5241;47.830;12.972;2024-01-15T02:34:34;5.63;;;2.73;;
10389;SDS011;5241;47.830;12.972;2024-01-15T02:36:59;8.03;;;2.83;;
10389;SDS011;5241;47.830;12.972;2024-01-15T02:39:25;4.57;;;3.13;;
10389;SDS011;5241;47.830;12.972;2024-01-15T02:41:51;7.03;;;3.23;;
10389;SDS011;5241;47.830;12.972;2024-01-15T02:44:16;8.87;;;3.03;;
10389;SDS011;5241;47.830;12.972;2024-01-15T02:46:42;7.17;;;4.00;;
10389;SDS011;5241;47.830;12.972;2024-01-15T02:49:07;7.13;;;3.00;;
10389;SDS011;5241;47.830;12.972;2024-01-15T02:51:33;7.97;;;3.37;;
10389;SDS011;5241;47.830;12.972;2024-01-15T02:53:58;5.20;;;3.23;;
10389;SDS011;5241;47.830;12.972;2024-01-15T02:56:24;5.13;;;3.00;;
10389;SDS011;5241;47.830;12.972;2024-01-15T02:58:50;5.83;;;2.63;;
10389;SDS011;5241;47.830;12.972;2024-01-15T03:01:17;6.53;;;3.33;;
10389;SDS011;5241;47.830;12.972;2024-01-15T03:03:44;5.97;;;3.30;;
10389;SDS011;5241;47.830;12.972;2024-01-15T03:06:10;7.33;;;3.50;;
10389;SDS011;5241;47.830;12.972;2024-01-15T03:08:36;6.30;;;3.43;;
10389;SDS011;5241;47.830;12.972;2024-01-15T03:11:01;6.90;;;3.17;;
10389;SDS011;5241;47.830;12.972;2024-01-15T03:13:27;6.77;;;3.07;;
10389;SDS011;5241;47.830;12.972;2024-01-15T03:15:52;8.73;;;3.57;;
10389;SDS011;5241;47.830;12.972;2024-01-15T03:18:18;6.93;;;3.10;;
10389;SDS011;5241;47.830;12.972;2024-01-15T03:20:43;7.83;;;3.83;;
10389;SDS011;5241;47.830;12.972;2024-01-15T03:23:09;6.87;;;3.10;;
10389;SDS011;5241;47.830;12.972;2024-01-15T03:25:34;7.83;;;3.47;;
10389;SDS011;5241;47.830;12.972;2024-01-15T03:28:00;7.97;;;3.67;;
10389;SDS011;5241;47.830;12.972;2024-01-15T03:30:25;6.47;;;3.70;;
10389;SDS011;5241;47.830;12.972;2024-01-15T03:32:51;7.47;;;4.20;;
10389;SDS011;5241;47.830;12.972;2024-01-15T03:35:16;9.97;;;4.30;;
10389;SDS011;5241;47.830;12.972;2024-01-15T03:37:42;9.10;;;3.87;;
10389;SDS011;5241;47.830;12.972;2024-01-15T03:40:08;10.27;;;3.47;;
10389;SDS011;5241;47.830;12.972;2024-01-15T03:42:34;8.93;;;3.70;;
10389;SDS011;5241;47.830;12.972;2024-01-15T03:44:59;5.87;;;3.30;;
10389;SDS011;5241;47.830;12.972;2024-01-15T03:47:25;7.80;;;3.90;;
10389;SDS011;5241;47.830;12.972;2024-01-15T03:49:51;9.83;;;3.53;;
10389;SDS011;5241;47.830;12.972;2024-01-15T03:52:17;7.30;;;3.40;;
10389;SDS011;5241;47.830;12.972;2024-01-15T03:54:42;6.50;;;3.77;;
10389;SDS011;5241;47.830;12.972;2024-01-15T03:57:08;7.50;;;3.30;;
10389;SDS011;5241;47.830;12.972;2024-01-15T03:59:33;7.80;;;3.50;;
10389;SDS011;5241;47.830;12.972;2024-01-15T04:01:59;6.60;;;3.80;;
10389;SDS011;5241;47.830;12.972;2024-01-15T04:04:24;8.67;;;3.30;;
10389;SDS011;5241;47.830;12.972;2024-01-15T04:06:50;8.60;;;3.53;;
10389;SDS011;5241;47.830;12.972;2024-01-15T04:09:15;8.77;;;3.47;;
10389;SDS011;5241;47.830;12.972;2024-01-15T04:11:41;6.67;;;3.50;;
10389;SDS011;5241;47.830;12.972;2024-01-15T04:14:06;6.90;;;3.60;;
10389;SDS011;5241;47.830;12.972;2024-01-15T04:16:32;5.47;;;3.17;;
10389;SDS011;5241;47.830;12.972;2024-01-15T04:18:57;7.70;;;3.40;;
10389;SDS011;5241;47.830;12.972;2024-01-15T04:21:23;9.00;;;4.03;;
10389;SDS011;5241;47.830;12.972;2024-01-15T04:23:48;8.50;;;4.03;;
10389;SDS011;5241;47.830;12.972;2024-01-15T04:26:14;9.23;;;3.60;;
10389;SDS011;5241;47.830;12.972;2024-01-15T04:28:39;4.97;;;2.63;;
10389;SDS011;5241;47.830;12.972;2024-01-15T04:31:05;5.17;;;3.23;;
10389;SDS011;5241;47.830;12.972;2024-01-15T04:33:31;7.93;;;2.83;;
10389;SDS011;5241;47.830;12.972;2024-01-15T04:35:56;6.30;;;3.23;;
10389;SDS011;5241;47.830;12.972;2024-01-15T04:38:26;7.13;;;3.57;;
10389;SDS011;5241;47.830;12.972;2024-01-15T04:40:51;7.17;;;3.63;;
10389;SDS011;5241;47.830;12.972;2024-01-15T04:43:17;7.80;;;3.20;;
10389;SDS011;5241;47.830;12.972;2024-01-15T04:45:42;5.03;;;2.70;;
10389;SDS011;5241;47.830;12.972;2024-01-15T04:48:08;6.43;;;3.40;;
10389;SDS011;5241;47.830;12.972;2024-01-15T04:50:33;6.17;;;2.90;;
10389;SDS011;5241;47.830;12.972;2024-01-15T04:52:59;8.33;;;2.90;;
10389;SDS011;5241;47.830;12.972;2024-01-15T04:55:24;6.07;;;3.00;;
10389;SDS011;5241;47.830;12.972;2024-01-15T04:57:50;6.60;;;3.47;;
10389;SDS011;5241;47.830;12.972;2024-01-15T05:00:15;8.20;;;3.27;;
10389;SDS011;5241;47.830;12.972;2024-01-15T05:02:41;5.27;;;2.57;;
10389;SDS011;5241;47.830;12.972;2024-01-15T05:05:06;5.20;;;2.83;;
10389;SDS011;5241;47.830;12.972;2024-01-15T05:07:32;4.87;;;2.87;;
10389;SDS011;5241;47.830;12.972;2024-01-15T05:09:58;6.13;;;2.67;;
10389;SDS011;5241;47.830;12.972;2024-01-15T05:12:23;5.87;;;2.57;;
10389;SDS011;5241;47.830;12.972;2024-01-15T05:14:49;3.67;;;2.70;;
10389;SDS011;5241;47.830;12.972;2024-01-15T05:17:14;5.90;;;3.03;;
10389;SDS011;5241;47.830;12.972;2024-01-15T05:19:40;5.43;;;2.77;;
10389;SDS011;5241;47.830;12.972;2024-01-15T05:22:05;4.53;;;2.90;;
10389;SDS011;5241;47.830;12.972;2024-01-15T05:24:31;4.27;;;2.33;;
10389;SDS011;5241;47.830;12.972;2024-01-15T05:26:56;5.77;;;2.90;;
10389;SDS011;5241;47.830;12.972;2024-01-15T05:29:22;3.57;;;2.00;;
10389;SDS011;5241;47.830;12.972;2024-01-15T05:31:48;4.10;;;2.10;;
10389;SDS011;5241;47.830;12.972;2024-01-15T05:34:13;7.07;;;2.40;;
10389;SDS011;5241;47.830;12.972;2024-01-15T05:36:39;4.87;;;2.40;;
10389;SDS011;5241;47.830;12.972;2024-01-15T05:39:04;3.57;;;1.90;;
10389;SDS011;5241;47.830;12.972;2024-01-15T05:41:30;5.93;;;2.10;;
10389;SDS011;5241;47.830;12.972;2024-01-15T05:43:55;4.53;;;2.20;;
10389;SDS011;5241;47.830;12.972;2024-01-15T05:46:21;3.73;;;2.13;;
10389;SDS011;5241;47.830;12.972;2024-01-15T05:48:46;4.63;;;2.43;;
10389;SDS011;5241;47.830;12.972;2024-01-15T05:51:12;3.47;;;1.97;;
10389;SDS011;5241;47.830;12.972;2024-01-15T05:53:38;5.63;;;2.07;;
10389;SDS011;5241;47.830;12.972;2024-01-15T05:56:05;4.93;;;2.13;;
10389;SDS011;5241;47.830;12.972;2024-01-15T05:58:31;3.63;;;1.97;;
10389;SDS011;5241;47.830;12.972;2024-01-15T06:00:56;6.40;;;2.43;;
10389;SDS011;5241;47.830;12.972;2024-01-15T06:03:22;3.20;;;2.13;;
10389;SDS011;5241;47.830;12.972;2024-01-15T06:05:47;4.00;;;2.17;;
10389;SDS011;5241;47.830;12.972;2024-01-15T06:08:13;2.83;;;1.83;;
10389;SDS011;5241;47.830;12.972;2024-01-15T06:10:39;2.90;;;1.67;;
10389;SDS011;5241;47.830;12.972;2024-01-15T06:13:05;4.43;;;1.83;;
10389;SDS011;5241;47.830;12.972;2024-01-15T06:15:30;4.03;;;2.00;;
10389;SDS011;5241;47.830;12.972;2024-01-15T06:17:56;2.93;;;1.60;;
10389;SDS011;5241;47.830;12.972;2024-01-15T06:20:21;4.23;;;2.33;;
10389;SDS011;5241;47.830;12.972;2024-01-15T06:22:47;6.47;;;2.57;;
10389;SDS011;5241;47.830;12.972;2024-01-15T06:25:12;6.07;;;2.27;;
10389;SDS011;5241;47.830;12.972;2024-01-15T06:27:38;2.17;;;1.63;;
10389;SDS011;5241;47.830;12.972;2024-01-15T06:30:04;4.97;;;2.53;;
10389;SDS011;5241;47.830;12.972;2024-01-15T06:32:30;4.73;;;2.37;;
10389;SDS011;5241;47.830;12.972;2024-01-15T06:34:55;5.27;;;2.87;;
10389;SDS011;5241;47.830;12.972;2024-01-15T06:37:21;3.03;;;1.80;;
10389;SDS011;5241;47.830;12.972;2024-01-15T06:39:47;3.33;;;1.77;;
10389;SDS011;5241;47.830;12.972;2024-01-15T06:42:12;3.07;;;1.97;;
10389;SDS011;5241;47.830;12.972;2024-01-15T06:44:38;5.33;;;2.10;;
10389;SDS011;5241;47.830;12.972;2024-01-15T06:47:03;3.53;;;1.97;;
10389;SDS011;5241;47.830;12.972;2024-01-15T06:49:30;3.20;;;2.03;;
10389;SDS011;5241;47.830;12.972;2024-01-15T06:51:55;4.13;;;2.00;;
10389;SDS011;5241;47.830;12.972;2024-01-15T06:54:21;7.57;;;2.43;;
10389;SDS011;5241;47.830;12.972;2024-01-15T06:56:47;3.00;;;2.17;;
10389;SDS011;5241;47.830;12.972;2024-01-15T06:59:12;3.97;;;1.80;;
10389;SDS011;5241;47.830;12.972;2024-01-15T07:01:38;3.83;;;2.30;;
10389;SDS011;5241;47.830;12.972;2024-01-15T07:04:03;3.30;;;2.23;;
10389;SDS011;5241;47.830;12.972;2024-01-15T07:06:29;4.40;;;1.67;;
10389;SDS011;5241;47.830;12.972;2024-01-15T07:08:55;1.77;;;1.10;;
10389;SDS011;5241;47.830;12.972;2024-01-15T07:11:21;1.27;;;0.90;;
10389;SDS011;5241;47.830;12.972;2024-01-15T07:13:47;3.53;;;1.43;;
10389;SDS011;5241;47.830;12.972;2024-01-15T07:16:12;3.83;;;2.17;;
10389;SDS011;5241;47.830;12.972;2024-01-15T07:18:38;2.90;;;1.30;;
10389;SDS011;5241;47.830;12.972;2024-01-15T07:21:04;1.87;;;1.27;;
10389;SDS011;5241;47.830;12.972;2024-01-15T07:23:30;2.67;;;1.43;;
10389;SDS011;5241;47.830;12.972;2024-01-15T07:25:56;1.93;;;1.27;;
10389;SDS011;5241;47.830;12.972;2024-01-15T07:28:22;1.30;;;1.17;;
10389;SDS011;5241;47.830;12.972;2024-01-15T07:30:47;1.63;;;1.10;;
10389;SDS011;5241;47.830;12.972;2024-01-15T07:33:13;2.20;;;1.47;;
10389;SDS011;5241;47.830;12.972;2024-01-15T07:35:38;2.80;;;1.67;;
10389;SDS011;5241;47.830;12.972;2024-01-15T07:38:04;1.33;;;1.10;;
10389;SDS011;5241;47.830;12.972;2024-01-15T07:40:29;1.70;;;1.27;;
10389;SDS011;5241;47.830;12.972;2024-01-15T07:42:55;1.77;;;1.40;;
10389;SDS011;5241;47.830;12.972;2024-01-15T07:45:20;2.30;;;1.80;;
10389;SDS011;5241;47.830;12.972;2024-01-15T07:47:46;1.80;;;1.27;;
10389;SDS011;5241;47.830;12.972;2024-01-15T07:50:12;2.17;;;1.30;;
10389;SDS011;5241;47.830;12.972;2024-01-15T07:52:38;1.90;;;1.40;;
10389;SDS011;5241;47.830;12.972;2024-01-15T07:55:05;2.07;;;1.60;;
10389;SDS011;5241;47.830;12.972;2024-01-15T07:57:31;2.63;;;1.67;;
10389;SDS011;5241;47.830;12.972;2024-01-15T07:59:56;1.50;;;1.40;;
10389;SDS011;5241;47.830;12.972;2024-01-15T08:02:22;2.00;;;1.37;;
10389;SDS011;5241;47.830;12.972;2024-01-15T08:04:47;4.10;;;1.43;;
10389;SDS011;5241;47.830;12.972;2024-01-15T08:07:13;3.03;;;1.47;;
10389;SDS011;5241;47.830;12.972;2024-01-15T08:09:39;3.80;;;1.90;;
10389;SDS011;5241;47.830;12.972;2024-01-15T08:12:04;5.00;;;2.10;;
10389;SDS011;5241;47.830;12.972;2024-01-15T08:14:31;1.83;;;1.50;;
10389;SDS011;5241;47.830;12.972;2024-01-15T08:16:57;2.47;;;1.73;;
10389;SDS011;5241;47.830;12.972;2024-01-15T08:19:22;2.60;;;1.50;;
10389;SDS011;5241;47.830;12.972;2024-01-15T08:21:48;1.60;;;1.30;;
10389;SDS011;5241;47.830;12.972;2024-01-15T08:24:14;1.97;;;1.30;;
10389;SDS011;5241;47.830;12.972;2024-01-15T08:26:40;3.33;;;1.27;;
10389;SDS011;5241;47.830;12.972;2024-01-15T08:29:06;6.73;;;1.90;;
10389;SDS011;5241;47.830;12.972;2024-01-15T08:31:31;7.33;;;1.63;;
10389;SDS011;5241;47.830;12.972;2024-01-15T08:33:57;3.37;;;1.47;;
10389;SDS011;5241;47.830;12.972;2024-01-15T08:36:24;2.57;;;1.23;;
10389;SDS011;5241;47.830;12.972;2024-01-15T08:38:50;1.40;;;1.20;;
10389;SDS011;5241;47.830;12.972;2024-01-15T08:41:15;1.80;;;1.40;;
10389;SDS011;5241;47.830;12.972;2024-01-15T08:43:41;1.57;;;1.20;;
10389;SDS011;5241;47.830;12.972;2024-01-15T08:46:06;1.40;;;0.87;;
10389;SDS011;5241;47.830;12.972;2024-01-15T08:48:32;2.00;;;0.93;;
10389;SDS011;5241;47.830;12.972;2024-01-15T08:50:57;1.80;;;1.37;;
10389;SDS011;5241;47.830;12.972;2024-01-15T08:53:24;2.07;;;1.30;;
10389;SDS011;5241;47.830;12.972;2024-01-15T08:55:50;1.03;;;0.73;;
10389;SDS011;5241;47.830;12.972;2024-01-15T08:58:16;2.67;;;1.53;;
10389;SDS011;5241;47.830;12.972;2024-01-15T09:00:41;2.30;;;1.30;;
10389;SDS011;5241;47.830;12.972;2024-01-15T09:03:07;4.17;;;1.80;;
10389;SDS011;5241;47.830;12.972;2024-01-15T09:05:35;2.43;;;1.10;;
10389;SDS011;5241;47.830;12.972;2024-01-15T09:08:01;2.50;;;2.00;;
10389;SDS011;5241;47.830;12.972;2024-01-15T09:10:26;2.43;;;1.60;;
10389;SDS011;5241;47.830;12.972;2024-01-15T09:12:52;3.87;;;1.90;;
10389;SDS011;5241;47.830;12.972;2024-01-15T09:15:17;5.93;;;3.00;;
10389;SDS011;5241;47.830;12.972;2024-01-15T09:17:44;6.43;;;3.50;;
10389;SDS011;5241;47.830;12.972;2024-01-15T09:20:09;6.10;;;3.23;;
10389;SDS011;5241;47.830;12.972;2024-01-15T09:22:37;6.47;;;3.03;;
10389;SDS011;5241;47.830;12.972;2024-01-15T09:25:06;6.17;;;3.37;;
10389;SDS011;5241;47.830;12.972;2024-01-15T09:27:32;4.47;;;2.13;;
10389;SDS011;5241;47.830;12.972;2024-01-15T09:29:59;6.20;;;3.47;;
10389;SDS011;5241;47.830;12.972;2024-01-15T09:32:24;4.67;;;2.53;;
10389;SDS011;5241;47.830;12.972;2024-01-15T09:34:50;4.43;;;2.83;;
10389;SDS011;5241;47.830;12.972;2024-01-15T09:37:16;5.10;;;2.53;;
10389;SDS011;5241;47.830;12.972;2024-01-15T09:39:41;5.17;;;3.03;;
10389;SDS011;5241;47.830;12.972;2024-01-15T09:42:07;3.50;;;2.67;;
10389;SDS011;5241;47.830;12.972;2024-01-15T09:44:33;3.93;;;2.10;;
10389;SDS011;5241;47.830;12.972;2024-01-15T09:46:59;4.27;;;2.30;;
10389;SDS011;5241;47.830;12.972;2024-01-15T09:49:25;2.97;;;2.00;;
10389;SDS011;5241;47.830;12.972;2024-01-15T09:51:52;2.00;;;1.63;;
10389;SDS011;5241;47.830;12.972;2024-01-15T09:54:19;3.33;;;2.23;;
10389;SDS011;5241;47.830;12.972;2024-01-15T09:56:46;1.77;;;1.53;;
10389;SDS011;5241;47.830;12.972;2024-01-15T09:59:18;3.77;;;1.73;;
10389;SDS011;5241;47.830;12.972;2024-01-15T10:01:44;2.03;;;1.83;;
10389;SDS011;5241;47.830;12.972;2024-01-15T10:04:13;2.83;;;2.07;;
10389;SDS011;5241;47.830;12.972;2024-01-15T10:06:46;2.47;;;1.67;;
10389;SDS011;5241;47.830;12.972;2024-01-15T10:09:12;2.97;;;2.10;;
10389;SDS011;5241;47.830;12.972;2024-01-15T10:11:41;2.20;;;1.70;;
10389;SDS011;5241;47.830;12.972;2024-01-15T10:14:08;2.10;;;1.60;;
10389;SDS011;5241;47.830;12.972;2024-01-15T10:16:37;3.83;;;1.77;;
10389;SDS011;5241;47.830;12.972;2024-01-15T10:19:06;3.40;;;1.73;;
10389;SDS011;5241;47.830;12.972;2024-01-15T10:21:32;3.57;;;1.87;;
10389;SDS011;5241;47.830;12.972;2024-01-15T10:24:01;3.87;;;2.20;;
10389;SDS011;5241;47.830;12.972;2024-01-15T10:26:28;2.63;;;1.80;;
10389;SDS011;5241;47.830;12.972;2024-01-15T10:28:54;3.63;;;1.70;;
10389;SDS011;5241;47.830;12.972;2024-01-15T10:31:19;2.20;;;1.70;;
10389;SDS011;5241;47.830;12.972;2024-01-15T10:33:46;3.83;;;2.00;;
10389;SDS011;5241;47.830;12.972;2024-01-15T10:36:15;4.40;;;1.97;;
10389;SDS011;5241;47.830;12.972;2024-01-15T10:38:45;3.53;;;2.40;;
10389;SDS011;5241;47.830;12.972;2024-01-15T10:41:13;3.63;;;1.73;;
10389;SDS011;5241;47.830;12.972;2024-01-15T10:43:39;3.77;;;2.00;;
10389;SDS011;5241;47.830;12.972;2024-01-15T10:46:07;3.83;;;1.93;;
10389;SDS011;5241;47.830;12.972;2024-01-15T10:48:33;6.73;;;3.57;;
10389;SDS011;5241;47.830;12.972;2024-01-15T10:51:00;5.43;;;2.77;;
10389;SDS011;5241;47.830;12.972;2024-01-15T10:53:28;3.87;;;2.13;;
10389;SDS011;5241;47.830;12.972;2024-01-15T10:55:56;4.83;;;2.73;;
10389;SDS011;5241;47.830;12.972;2024-01-15T10:58:23;6.40;;;3.10;;
10389;SDS011;5241;47.830;12.972;2024-01-15T11:00:54;3.93;;;2.50;;
10389;SDS011;5241;47.830;12.972;2024-01-15T11:03:21;6.03;;;1.70;;
10389;SDS011;5241;47.830;12.972;2024-01-15T11:05:47;3.67;;;2.30;;
10389;SDS011;5241;47.830;12.972;2024-01-15T11:08:12;2.67;;;1.93;;
10389;SDS011;5241;47.830;12.972;2024-01-15T11:10:43;3.57;;;2.00;;
10389;SDS011;5241;47.830;12.972;2024-01-15T11:13:15;3.43;;;1.50;;
10389;SDS011;5241;47.830;12.972;2024-01-15T11:16:05;4.87;;;2.03;;
10389;SDS011;5241;47.830;12.972;2024-01-15T11:18:35;4.80;;;1.67;;
10389;SDS011;5241;47.830;12.972;2024-01-15T11:23:52;1.80;;;1.30;;
10389;SDS011;5241;47.830;12.972;2024-01-15T11:26:37;1.87;;;1.53;;
10389;SDS011;5241;47.830;12.972;2024-01-15T11:29:07;2.50;;;1.60;;
10389;SDS011;5241;47.830;12.972;2024-01-15T11:34:06;2.20;;;1.40;;
10389;SDS011;5241;47.830;12.972;2024-01-15T11:41:55;1.97;;;1.57;;
10389;SDS011;5241;47.830;12.972;2024-01-15T11:44:25;1.47;;;1.37;;
10389;SDS011;5241;47.830;12.972;2024-01-15T11:46:58;1.53;;;1.30;;
10389;SDS011;5241;47.830;12.972;2024-01-15T11:52:25;2.63;;;1.30;;
10389;SDS011;5241;47.830;12.972;2024-01-15T11:54:55;1.70;;;1.30;;
10389;SDS011;5241;47.830;12.972;2024-01-15T12:00:01;2.40;;;1.60;;
10389;SDS011;5241;47.830;12.972;2024-01-15T12:02:28;3.70;;;1.97;;
10389;SDS011;5241;47.830;12.972;2024-01-15T12:04:54;1.10;;;1.00;;
10389;SDS011;5241;47.830;12.972;2024-01-15T12:07:20;3.57;;;1.60;;
10389;SDS011;5241;47.830;12.972;2024-01-15T12:09:45;2.33;;;1.20;;
10389;SDS011;5241;47.830;12.972;2024-01-15T12:12:13;3.07;;;1.57;;
10389;SDS011;5241;47.830;12.972;2024-01-15T12:14:46;3.93;;;1.80;;
10389;SDS011;5241;47.830;12.972;2024-01-15T12:17:11;2.87;;;1.60;;
10389;SDS011;5241;47.830;12.972;2024-01-15T12:19:37;5.93;;;1.70;;
10389;SDS011;5241;47.830;12.972;2024-01-15T12:22:02;3.43;;;2.43;;
10389;SDS011;5241;47.830;12.972;2024-01-15T12:24:28;3.83;;;1.47;;
10389;SDS011;5241;47.830;12.972;2024-01-15T12:26:54;2.10;;;1.90;;
10389;SDS011;5241;47.830;12.972;2024-01-15T12:29:19;2.80;;;2.03;;
10389;SDS011;5241;47.830;12.972;2024-01-15T12:31:48;6.40;;;1.70;;
10389;SDS011;5241;47.830;12.972;2024-01-15T12:34:14;2.77;;;1.53;;
10389;SDS011;5241;47.830;12.972;2024-01-15T12:36:40;2.43;;;1.40;;
10389;SDS011;5241;47.830;12.972;2024-01-15T12:39:06;3.93;;;1.90;;
10389;SDS011;5241;47.830;12.972;2024-01-15T12:41:36;11.33;;;4.37;;
10389;SDS011;5241;47.830;12.972;2024-01-15T12:44:02;3.40;;;1.80;;
10389;SDS011;5241;47.830;12.972;2024-01-15T12:46:28;7.63;;;3.77;;
10389;SDS011;5241;47.830;12.972;2024-01-15T12:48:55;22.93;;;8.00;;
10389;SDS011;5241;47.830;12.972;2024-01-15T12:51:24;4.80;;;2.70;;
10389;SDS011;5241;47.830;12.972;2024-01-15T12:53:50;4.23;;;2.30;;
10389;SDS011;5241;47.830;12.972;2024-01-15T12:56:16;5.03;;;2.23;;
10389;SDS011;5241;47.830;12.972;2024-01-15T12:58:41;32.10;;;10.83;;
10389;SDS011;5241;47.830;12.972;2024-01-15T13:01:07;15.43;;;4.37;;
10389;SDS011;5241;47.830;12.972;2024-01-15T13:03:33;13.30;;;4.10;;
10389;SDS011;5241;47.830;12.972;2024-01-15T13:05:58;12.40;;;4.87;;
10389;SDS011;5241;47.830;12.972;2024-01-15T13:08:23;3.47;;;1.93;;
10389;SDS011;5241;47.830;12.972;2024-01-15T13:10:51;5.60;;;2.37;;
10389;SDS011;5241;47.830;12.972;2024-01-15T13:13:21;9.03;;;2.57;;
10389;SDS011;5241;47.830;12.972;2024-01-15T13:15:46;18.93;;;4.73;;
10389;SDS011;5241;47.830;12.972;2024-01-15T13:18:12;15.50;;;4.87;;
10389;SDS011;5241;47.830;12.972;2024-01-15T13:20:37;2.37;;;1.30;;
10389;SDS011;5241;47.830;12.972;2024-01-15T13:23:03;8.20;;;4.07;;
10389;SDS011;5241;47.830;12.972;2024-01-15T13:25:29;2.73;;;1.20;;
10389;SDS011;5241;47.830;12.972;2024-01-15T13:27:54;1.43;;;1.13;;
10389;SDS011;5241;47.830;12.972;2024-01-15T13:30:20;1.20;;;0.93;;
10389;SDS011;5241;47.830;12.972;2024-01-15T13:32:45;1.30;;;0.77;;
10389;SDS011;5241;47.830;12.972;2024-01-15T13:35:11;1.40;;;1.20;;
10389;SDS011;5241;47.830;12.972;2024-01-15T13:37:38;2.23;;;0.77;;
10389;SDS011;5241;47.830;12.972;2024-01-15T13:40:06;4.10;;;0.90;;
10389;SDS011;5241;47.830;12.972;2024-01-15T13:42:34;1.10;;;1.00;;
10389;SDS011;5241;47.830;12.972;2024-01-15T13:45:06;2.27;;;0.90;;
10389;SDS011;5241;47.830;12.972;2024-01-15T13:47:32;2.63;;;0.67;;
10389;SDS011;5241;47.830;12.972;2024-01-15T13:49:58;1.07;;;0.60;;
10389;SDS011;5241;47.830;12.972;2024-01-15T13:52:24;0.60;;;0.60;;
10389;SDS011;5241;47.830;12.972;2024-01-15T13:54:49;1.40;;;0.80;;
10389;SDS011;5241;47.830;12.972;2024-01-15T13:57:15;1.93;;;1.30;;
10389;SDS011;5241;47.830;12.972;2024-01-15T13:59:41;3.67;;;1.23;;
10389;SDS011;5241;47.830;12.972;2024-01-15T14:02:07;2.13;;;1.13;;
10389;SDS011;5241;47.830;12.972;2024-01-15T14:04:32;0.93;;;0.80;;
10389;SDS011;5241;47.830;12.972;2024-01-15T14:06:58;1.10;;;1.00;;
10389;SDS011;5241;47.830;12.972;2024-01-15T14:09:23;2.40;;;1.33;;
10389;SDS011;5241;47.830;12.972;2024-01-15T14:11:50;1.87;;;1.07;;
10389;SDS011;5241;47.830;12.972;2024-01-15T14:14:15;2.10;;;1.33;;
10389;SDS011;5241;47.830;12.972;2024-01-15T14:16:42;1.00;;;0.90;;
10389;SDS011;5241;47.830;12.972;2024-01-15T14:19:07;2.20;;;0.87;;
10389;SDS011;5241;47.830;12.972;2024-01-15T14:21:34;2.00;;;0.83;;
10389;SDS011;5241;47.830;12.972;2024-01-15T14:24:00;1.23;;;1.00;;
10389;SDS011;5241;47.830;12.972;2024-01-15T14:26:26;1.10;;;1.00;;
10389;SDS011;5241;47.830;12.972;2024-01-15T14:28:52;3.10;;;1.60;;
10389;SDS011;5241;47.830;12.972;2024-01-15T14:31:19;1.97;;;1.87;;
10389;SDS011;5241;47.830;12.972;2024-01-15T14:33:45;7.63;;;2.70;;
10389;SDS011;5241;47.830;12.972;2024-01-15T14:36:10;3.17;;;1.83;;
10389;SDS011;5241;47.830;12.972;2024-01-15T14:38:36;11.83;;;5.23;;
10389;SDS011;5241;47.830;12.972;2024-01-15T14:41:01;4.43;;;2.57;;
10389;SDS011;5241;47.830;12.972;2024-01-15T14:43:27;5.33;;;2.50;;
10389;SDS011;5241;47.830;12.972;2024-01-15T14:45:52;2.77;;;1.77;;
10389;SDS011;5241;47.830;12.972;2024-01-15T14:48:18;2.93;;;1.53;;
10389;SDS011;5241;47.830;12.972;2024-01-15T14:50:44;2.27;;;1.60;;
10389;SDS011;5241;47.830;12.972;2024-01-15T14:53:09;2.83;;;1.80;;
10389;SDS011;5241;47.830;12.972;2024-01-15T14:55:35;5.13;;;2.40;;
10389;SDS011;5241;47.830;12.972;2024-01-15T14:58:00;2.63;;;2.07;;